createdAt,value
2023-08-19T00:01:11.022Z,26.98
2023-08-19T00:03:38.417Z,26.96
2023-08-19T00:06:08.462Z,26.93
2023-08-19T00:08:35.495Z,26.90
2023-08-19T00:11:02.731Z,26.89
2023-08-19T00:13:29.649Z,26.87
2023-08-19T00:15:56.067Z,26.85
2023-08-19T00:18:22.517Z,26.83
2023-08-19T00:20:51.130Z,26.82
2023-08-19T00:23:18.080Z,26.80
2023-08-19T00:25:44.889Z,26.79
2023-08-19T00:28:11.343Z,26.76
2023-08-19T00:30:37.864Z,26.75
2023-08-19T00:33:04.796Z,26.72
2023-08-19T00:35:33.358Z,26.71
2023-08-19T00:38:00.011Z,26.68
2023-08-19T00:40:26.452Z,26.66
2023-08-19T00:42:53.010Z,26.64
2023-08-19T00:45:19.542Z,26.62
2023-08-19T00:47:47.033Z,26.61
2023-08-19T00:50:14.053Z,26.60
2023-08-19T00:52:41.259Z,26.58
2023-08-19T00:55:08.554Z,26.56
2023-08-19T00:57:37.722Z,26.54
2023-08-19T01:00:05.560Z,26.52
2023-08-19T01:02:32.123Z,26.48
2023-08-19T01:04:59.365Z,26.46
2023-08-19T01:07:49.677Z,26.44
2023-08-19T01:10:43.153Z,26.42
2023-08-19T01:13:15.340Z,26.40
2023-08-19T01:15:53.938Z,26.38
2023-08-19T01:18:20.979Z,26.33
2023-08-19T01:20:47.704Z,26.31
2023-08-19T01:23:19.895Z,26.28
2023-08-19T01:25:46.735Z,26.25
2023-08-19T01:28:15.104Z,26.23
2023-08-19T01:30:42.246Z,26.20
2023-08-19T01:33:08.824Z,26.18
2023-08-19T01:35:50.474Z,26.16
2023-08-19T01:38:25.155Z,26.14
2023-08-19T01:40:52.461Z,26.12
2023-08-19T01:43:19.638Z,26.11
2023-08-19T01:45:46.052Z,26.09
2023-08-19T01:48:12.459Z,26.07
2023-08-19T01:50:38.878Z,26.06
2023-08-19T01:53:05.352Z,26.06
2023-08-19T01:55:31.734Z,26.04
2023-08-19T01:57:58.134Z,26.04
2023-08-19T02:00:24.488Z,26.02
2023-08-19T02:02:51.103Z,26.01
2023-08-19T02:05:17.592Z,25.99
2023-08-19T02:07:44.161Z,25.98
2023-08-19T02:10:12.593Z,25.96
2023-08-19T02:12:39.107Z,25.94
2023-08-19T02:15:06.141Z,25.92
2023-08-19T02:17:32.786Z,25.91
2023-08-19T02:19:59.449Z,25.88
2023-08-19T02:22:25.876Z,25.85
2023-08-19T02:24:52.253Z,25.83
2023-08-19T02:27:18.633Z,25.82
2023-08-19T02:29:44.977Z,25.79
2023-08-19T02:32:11.971Z,25.79
2023-08-19T02:34:38.430Z,25.76
2023-08-19T02:37:04.842Z,25.74
2023-08-19T02:39:31.183Z,25.73
2023-08-19T02:41:57.561Z,25.72
2023-08-19T02:44:23.929Z,25.71
2023-08-19T02:46:50.360Z,25.70
2023-08-19T02:49:16.797Z,25.69
2023-08-19T02:51:43.173Z,25.67
2023-08-19T02:54:12.456Z,25.66
2023-08-19T02:56:38.815Z,25.65
2023-08-19T02:59:05.205Z,25.63
2023-08-19T03:01:31.569Z,25.61
2023-08-19T03:03:57.938Z,25.61
2023-08-19T03:06:24.298Z,25.59
2023-08-19T03:08:50.703Z,25.59
2023-08-19T03:11:17.084Z,25.58
2023-08-19T03:13:43.490Z,25.56
2023-08-19T03:16:09.881Z,25.55
2023-08-19T03:18:36.261Z,25.55
2023-08-19T03:21:02.743Z,25.54
2023-08-19T03:23:29.434Z,25.55
2023-08-19T03:25:56.634Z,25.55
2023-08-19T03:28:23.595Z,25.55
2023-08-19T03:30:49.977Z,25.58
2023-08-19T03:33:16.605Z,25.60
2023-08-19T03:35:43.200Z,25.60
2023-08-19T03:38:09.923Z,25.61
2023-08-19T03:40:37.193Z,25.62
2023-08-19T03:43:04.770Z,25.64
2023-08-19T03:45:34.010Z,25.64
2023-08-19T03:48:00.596Z,25.65
2023-08-19T03:50:27.154Z,25.63
2023-08-19T03:52:53.507Z,25.63
2023-08-19T03:55:19.903Z,25.62
2023-08-19T03:57:46.298Z,25.60
2023-08-19T04:00:12.942Z,25.59
2023-08-19T04:02:39.354Z,25.58
2023-08-19T04:05:08.834Z,25.57
2023-08-19T04:07:35.643Z,25.55
2023-08-19T04:10:02.246Z,25.53
2023-08-19T04:12:28.618Z,25.53
2023-08-19T04:14:54.997Z,25.52
2023-08-19T04:17:21.451Z,25.51
2023-08-19T04:19:47.913Z,25.49
2023-08-19T04:22:16.451Z,25.50
2023-08-19T04:24:43.561Z,25.49
2023-08-19T04:27:10.003Z,25.48
2023-08-19T04:29:36.508Z,25.48
2023-08-19T04:32:03.932Z,25.47
2023-08-19T04:34:31.196Z,25.47
2023-08-19T04:36:57.574Z,25.45
2023-08-19T04:39:24.827Z,25.45
2023-08-19T04:41:51.437Z,25.45
2023-08-19T04:44:18.262Z,25.45
2023-08-19T04:46:44.668Z,25.45
2023-08-19T04:49:11.105Z,25.46
2023-08-19T04:51:37.557Z,25.46
2023-08-19T04:54:04.572Z,25.47
2023-08-19T04:56:31.346Z,25.48
2023-08-19T04:59:01.386Z,25.50
2023-08-19T05:01:28.727Z,25.52
2023-08-19T05:03:55.649Z,25.53
2023-08-19T05:06:22.930Z,25.54
2023-08-19T05:08:49.339Z,25.59
2023-08-19T05:11:15.750Z,25.61
2023-08-19T05:13:43.761Z,25.64
2023-08-19T05:16:13.442Z,25.67
2023-08-19T05:18:40.356Z,25.71
2023-08-19T05:21:06.731Z,25.75
2023-08-19T05:23:33.169Z,25.78
2023-08-19T05:25:59.678Z,25.84
2023-08-19T05:28:26.070Z,25.88
2023-08-19T05:30:52.458Z,25.93
2023-08-19T05:33:18.808Z,25.96
2023-08-19T05:35:45.215Z,26.01
2023-08-19T05:38:11.688Z,26.06
2023-08-19T05:40:38.086Z,26.11
2023-08-19T05:43:04.487Z,26.16
2023-08-19T05:45:33.813Z,26.25
2023-08-19T05:48:00.213Z,26.32
2023-08-19T05:50:27.720Z,26.38
2023-08-19T05:52:54.129Z,26.47
2023-08-19T05:55:20.621Z,26.56
2023-08-19T05:57:47.060Z,26.65
2023-08-19T06:00:13.605Z,26.74
2023-08-19T06:02:40.627Z,26.85
2023-08-19T06:05:07.579Z,26.95
2023-08-19T06:07:35.081Z,27.05
2023-08-19T06:10:01.879Z,27.12
2023-08-19T06:12:28.428Z,27.21
2023-08-19T06:14:54.810Z,27.28
2023-08-19T06:17:21.294Z,27.34
2023-08-19T06:19:47.781Z,27.39
2023-08-19T06:22:14.221Z,27.41
2023-08-19T06:24:40.633Z,27.45
2023-08-19T06:27:07.002Z,27.49
2023-08-19T06:29:33.421Z,27.52
2023-08-19T06:32:00.048Z,27.56
2023-08-19T06:34:26.776Z,27.61
2023-08-19T06:37:00.846Z,27.66
2023-08-19T06:39:28.367Z,27.70
2023-08-19T06:42:03.929Z,27.75
2023-08-19T06:44:31.456Z,27.79
2023-08-19T06:46:59.458Z,27.84
2023-08-19T06:49:26.173Z,27.89
2023-08-19T06:51:52.898Z,27.94
2023-08-19T06:54:19.529Z,27.99
2023-08-19T06:57:04.310Z,28.05
2023-08-19T06:59:40.729Z,28.10
2023-08-19T07:02:09.132Z,28.15
2023-08-19T07:04:36.429Z,28.20
2023-08-19T07:07:04.995Z,28.24
2023-08-19T07:09:32.389Z,28.30
2023-08-19T07:11:59.404Z,28.37
2023-08-19T07:14:27.271Z,28.45
2023-08-19T07:16:58.696Z,28.57
2023-08-19T07:19:35.143Z,28.67
2023-08-19T07:22:01.673Z,28.77
2023-08-19T07:24:29.244Z,28.88
2023-08-19T07:26:55.986Z,28.98
2023-08-19T07:29:22.739Z,29.06
2023-08-19T07:31:49.437Z,29.15
2023-08-19T07:34:15.920Z,29.22
2023-08-19T07:36:43.266Z,29.28
2023-08-19T07:39:09.635Z,29.35
2023-08-19T07:41:36.035Z,29.42
2023-08-19T07:44:02.398Z,29.46
2023-08-19T07:46:30.424Z,29.52
2023-08-19T07:48:56.801Z,29.58
2023-08-19T07:51:23.315Z,29.64
2023-08-19T07:53:49.699Z,29.69
2023-08-19T07:56:18.087Z,29.74
2023-08-19T07:58:45.463Z,29.84
2023-08-19T08:01:11.860Z,29.91
2023-08-19T08:03:41.292Z,30.00
2023-08-19T08:06:07.722Z,30.08
2023-08-19T08:08:34.172Z,30.17
2023-08-19T08:11:00.962Z,30.25
2023-08-19T08:13:27.407Z,30.35
2023-08-19T08:15:54.153Z,30.42
2023-08-19T08:18:20.593Z,30.51
2023-08-19T08:20:47.081Z,30.59
2023-08-19T08:23:13.523Z,30.68
2023-08-19T08:25:39.951Z,30.75
2023-08-19T08:28:07.889Z,30.83
2023-08-19T08:30:34.308Z,30.90
2023-08-19T08:33:03.819Z,30.96
2023-08-19T08:35:30.880Z,31.03
2023-08-19T08:37:57.253Z,31.12
2023-08-19T08:40:23.715Z,31.22
2023-08-19T08:42:52.255Z,31.32
2023-08-19T08:45:21.069Z,31.43
2023-08-19T08:47:48.155Z,31.56
2023-08-19T08:50:14.655Z,31.64
2023-08-19T08:52:41.663Z,31.74
2023-08-19T08:55:10.314Z,31.84
2023-08-19T08:57:36.719Z,31.92
2023-08-19T09:00:04.521Z,32.01
2023-08-19T09:02:31.638Z,32.08
2023-08-19T09:04:58.954Z,32.17
2023-08-19T09:07:29.688Z,32.23
2023-08-19T09:09:59.391Z,32.28
2023-08-19T09:12:27.123Z,32.34
2023-08-19T09:14:58.809Z,32.39
2023-08-19T09:17:25.205Z,32.44
2023-08-19T09:19:51.633Z,32.47
2023-08-19T09:22:17.945Z,32.50
2023-08-19T09:24:45.298Z,32.51
2023-08-19T09:27:12.798Z,32.51
2023-08-19T09:29:49.787Z,32.52
2023-08-19T09:32:16.258Z,32.52
2023-08-19T09:34:42.678Z,32.53
2023-08-19T09:37:13.281Z,32.55
2023-08-19T09:39:39.713Z,32.56
2023-08-19T09:42:09.325Z,32.58
2023-08-19T09:44:36.003Z,32.60
2023-08-19T09:47:03.555Z,32.62
2023-08-19T09:49:30.021Z,32.65
2023-08-19T09:51:57.481Z,32.69
2023-08-19T09:54:25.205Z,32.72
2023-08-19T09:56:59.450Z,32.80
2023-08-19T09:59:27.285Z,32.84
2023-08-19T10:01:54.510Z,32.88
2023-08-19T10:04:21.556Z,32.93
2023-08-19T10:06:51.789Z,32.98
2023-08-19T10:09:23.610Z,33.04
2023-08-19T10:11:55.792Z,33.13
2023-08-19T10:14:30.317Z,33.23
2023-08-19T10:17:01.655Z,33.36
2023-08-19T10:19:29.759Z,33.49
2023-08-19T10:21:58.580Z,33.60
2023-08-19T10:24:25.696Z,33.70
2023-08-19T10:26:52.171Z,33.81
2023-08-19T10:29:18.625Z,33.88
2023-08-19T10:31:45.077Z,33.95
2023-08-19T10:34:13.024Z,34.01
2023-08-19T10:36:40.489Z,34.07
2023-08-19T10:39:15.962Z,34.14
2023-08-19T10:41:42.676Z,34.21
2023-08-19T10:44:12.092Z,34.24
2023-08-19T10:46:42.804Z,34.26
2023-08-19T10:49:14.358Z,34.28
2023-08-19T10:51:50.113Z,34.30
2023-08-19T10:54:28.826Z,34.34
2023-08-19T10:57:13.659Z,34.39
2023-08-19T10:59:42.927Z,34.41
2023-08-19T11:02:10.220Z,34.42
2023-08-19T11:04:42.445Z,34.44
2023-08-19T11:07:09.814Z,34.46
2023-08-19T11:09:37.493Z,34.46
2023-08-19T11:12:04.836Z,34.48
2023-08-19T11:14:31.235Z,34.48
2023-08-19T11:16:57.821Z,34.52
2023-08-19T11:19:24.628Z,34.57
2023-08-19T11:21:52.002Z,34.63
2023-08-19T11:24:18.416Z,34.70
2023-08-19T11:26:49.113Z,34.81
2023-08-19T11:29:16.057Z,34.91
2023-08-19T11:31:44.051Z,35.02
2023-08-19T11:34:12.236Z,35.13
2023-08-19T11:36:39.754Z,35.25
2023-08-19T11:39:08.830Z,35.35
2023-08-19T11:41:37.817Z,35.45
2023-08-19T11:44:06.077Z,35.53
2023-08-19T11:46:36.508Z,35.65
2023-08-19T11:49:09.175Z,35.71
2023-08-19T11:51:39.575Z,35.79
2023-08-19T11:54:08.860Z,35.83
2023-08-19T11:56:54.780Z,35.89
2023-08-19T11:59:35.122Z,35.91
2023-08-19T12:02:06.654Z,35.92
2023-08-19T12:04:35.029Z,35.94
2023-08-19T12:07:25.546Z,35.96
2023-08-19T12:09:52.063Z,35.96
2023-08-19T12:12:19.029Z,35.96
2023-08-19T12:14:45.412Z,35.99
2023-08-19T12:17:12.846Z,36.01
2023-08-19T12:19:39.216Z,36.05
2023-08-19T12:22:05.994Z,36.09
2023-08-19T12:24:32.855Z,36.12
2023-08-19T12:26:59.333Z,36.14
2023-08-19T12:29:26.008Z,36.12
2023-08-19T12:31:52.481Z,36.11
2023-08-19T12:34:19.355Z,36.07
2023-08-19T12:36:45.804Z,36.02
2023-08-19T12:39:12.187Z,35.94
2023-08-19T12:41:39.293Z,35.85
2023-08-19T12:44:06.041Z,35.74
2023-08-19T12:46:41.476Z,35.63
2023-08-19T12:49:07.857Z,35.57
2023-08-19T12:51:34.308Z,35.46
2023-08-19T12:54:00.778Z,35.33
2023-08-19T12:56:27.256Z,35.18
2023-08-19T12:58:54.629Z,35.04
2023-08-19T13:01:21.074Z,34.92
2023-08-19T13:03:47.678Z,34.80
2023-08-19T13:06:14.093Z,34.69
2023-08-19T13:08:40.667Z,34.58
2023-08-19T13:11:07.074Z,34.50
2023-08-19T13:13:33.489Z,34.40
2023-08-19T13:15:59.901Z,34.33
2023-08-19T13:18:26.422Z,34.24
2023-08-19T13:20:52.775Z,34.18
2023-08-19T13:23:19.135Z,34.12
2023-08-19T13:25:45.569Z,34.08
2023-08-19T13:28:12.000Z,34.03
2023-08-19T13:30:38.410Z,34.00
2023-08-19T13:33:05.363Z,33.96
2023-08-19T13:35:35.429Z,33.91
2023-08-19T13:38:04.100Z,33.85
2023-08-19T13:40:30.547Z,33.78
2023-08-19T13:42:57.033Z,33.69
2023-08-19T13:45:23.499Z,33.60
2023-08-19T13:48:00.862Z,33.50
2023-08-19T13:50:36.928Z,33.39
2023-08-19T13:53:03.575Z,33.31
2023-08-19T13:55:29.946Z,33.25
2023-08-19T13:57:57.744Z,33.22
2023-08-19T14:00:24.204Z,33.19
2023-08-19T14:02:50.957Z,33.17
2023-08-19T14:05:17.469Z,33.17
2023-08-19T14:07:44.922Z,33.13
2023-08-19T14:10:12.112Z,33.09
2023-08-19T14:12:39.477Z,33.03
2023-08-19T14:15:08.891Z,32.97
2023-08-19T14:17:37.784Z,32.89
2023-08-19T14:20:07.678Z,32.80
2023-08-19T14:22:35.053Z,32.73
2023-08-19T14:25:01.501Z,32.66
2023-08-19T14:27:27.943Z,32.60
2023-08-19T14:29:54.414Z,32.53
2023-08-19T14:32:20.898Z,32.44
2023-08-19T14:34:47.384Z,32.38
2023-08-19T14:37:13.748Z,32.31
2023-08-19T14:39:40.139Z,32.25
2023-08-19T14:42:06.742Z,32.20
2023-08-19T14:44:33.541Z,32.14
2023-08-19T14:47:00.618Z,32.08
2023-08-19T14:49:27.098Z,32.04
2023-08-19T14:51:53.443Z,31.98
2023-08-19T14:54:19.798Z,31.92
2023-08-19T14:56:46.315Z,31.84
2023-08-19T14:59:12.780Z,31.74
2023-08-19T15:01:39.178Z,31.65
2023-08-19T15:04:06.097Z,31.55
2023-08-19T15:06:33.316Z,31.44
2023-08-19T15:08:59.740Z,31.33
2023-08-19T15:11:26.124Z,31.21
2023-08-19T15:13:52.530Z,31.09
2023-08-19T15:16:18.976Z,30.99
2023-08-19T15:18:45.351Z,30.89
2023-08-19T15:21:11.735Z,30.79
2023-08-19T15:23:38.190Z,30.71
2023-08-19T15:26:04.535Z,30.61
2023-08-19T15:28:30.933Z,30.52
2023-08-19T15:30:57.363Z,30.46
2023-08-19T15:33:23.742Z,30.41
2023-08-19T15:35:50.119Z,30.35
2023-08-19T15:38:16.563Z,30.29
2023-08-19T15:40:43.006Z,30.23
2023-08-19T15:43:09.404Z,30.16
2023-08-19T15:45:35.770Z,30.10
2023-08-19T15:48:02.256Z,30.02
2023-08-19T15:50:28.674Z,29.96
2023-08-19T15:52:55.072Z,29.91
2023-08-19T15:55:21.485Z,29.86
2023-08-19T15:57:48.046Z,29.83
2023-08-19T16:00:15.795Z,29.81
2023-08-19T16:02:42.974Z,29.79
2023-08-19T16:05:10.422Z,29.80
2023-08-19T16:07:41.846Z,29.79
2023-08-19T16:10:10.086Z,29.80
2023-08-19T16:12:38.297Z,29.78
2023-08-19T16:15:05.546Z,29.76
2023-08-19T16:17:32.107Z,29.73
2023-08-19T16:19:58.572Z,29.68
2023-08-19T16:22:25.013Z,29.64
2023-08-19T16:24:51.526Z,29.58
2023-08-19T16:27:17.950Z,29.53
2023-08-19T16:29:44.457Z,29.50
2023-08-19T16:32:10.916Z,29.44
2023-08-19T16:34:37.838Z,29.41
2023-08-19T16:37:06.373Z,29.40
2023-08-19T16:39:32.756Z,29.40
2023-08-19T16:41:59.152Z,29.42
2023-08-19T16:44:25.702Z,29.44
2023-08-19T16:46:52.281Z,29.50
2023-08-19T16:49:18.749Z,29.53
2023-08-19T16:51:45.716Z,29.57
2023-08-19T16:54:12.237Z,29.62
2023-08-19T16:56:38.680Z,29.66
2023-08-19T16:59:05.290Z,29.70
2023-08-19T17:01:31.741Z,29.79
2023-08-19T17:03:58.139Z,29.89
2023-08-19T17:06:24.591Z,30.00
2023-08-19T17:08:52.974Z,30.16
2023-08-19T17:11:19.573Z,30.31
2023-08-19T17:13:46.678Z,30.47
2023-08-19T17:16:13.106Z,30.59
2023-08-19T17:18:39.515Z,30.70
2023-08-19T17:21:05.888Z,30.76
2023-08-19T17:23:33.468Z,30.84
2023-08-19T17:25:59.842Z,30.88
2023-08-19T17:28:26.256Z,30.96
2023-08-19T17:31:03.313Z,31.06
2023-08-19T17:33:30.884Z,31.19
2023-08-19T17:36:03.782Z,31.34
2023-08-19T17:38:33.606Z,31.48
2023-08-19T17:41:04.507Z,31.61
2023-08-19T17:43:31.728Z,31.72
2023-08-19T17:46:02.742Z,31.84
2023-08-19T17:48:30.865Z,31.93
2023-08-19T17:50:57.504Z,32.02
2023-08-19T17:53:24.901Z,32.06
2023-08-19T17:56:01.176Z,32.12
2023-08-19T17:58:30.842Z,32.12
2023-08-19T18:00:58.355Z,32.09
2023-08-19T18:03:24.842Z,32.04
2023-08-19T18:05:51.322Z,31.94
2023-08-19T18:08:17.913Z,31.81
2023-08-19T18:10:45.354Z,31.65
2023-08-19T18:13:11.727Z,31.49
2023-08-19T18:15:38.367Z,31.32
2023-08-19T18:18:05.074Z,31.16
2023-08-19T18:20:31.719Z,30.98
2023-08-19T18:22:58.140Z,30.81
2023-08-19T18:25:24.545Z,30.64
2023-08-19T18:27:53.636Z,30.48
2023-08-19T18:30:20.980Z,30.33
2023-08-19T18:32:50.778Z,30.17
2023-08-19T18:35:19.147Z,30.03
2023-08-19T18:37:46.421Z,29.89
2023-08-19T18:40:15.313Z,29.76
2023-08-19T18:42:43.351Z,29.63
2023-08-19T18:45:12.498Z,29.51
2023-08-19T18:48:03.400Z,29.39
2023-08-19T18:50:30.225Z,29.26
2023-08-19T18:52:56.785Z,29.13
2023-08-19T18:55:23.351Z,29.02
2023-08-19T18:57:49.762Z,28.92
2023-08-19T19:00:16.845Z,28.81
2023-08-19T19:02:43.344Z,28.71
2023-08-19T19:05:09.781Z,28.62
2023-08-19T19:07:37.386Z,28.53
2023-08-19T19:10:04.199Z,28.45
2023-08-19T19:12:30.625Z,28.36
2023-08-19T19:14:57.170Z,28.28
2023-08-19T19:17:23.583Z,28.21
2023-08-19T19:19:50.009Z,28.13
2023-08-19T19:22:16.423Z,28.06
2023-08-19T19:24:42.790Z,27.99
2023-08-19T19:27:09.169Z,27.92
2023-08-19T19:29:35.567Z,27.85
2023-08-19T19:32:01.960Z,27.78
2023-08-19T19:34:28.394Z,27.71
2023-08-19T19:36:54.815Z,27.65
2023-08-19T19:39:21.226Z,27.56
2023-08-19T19:41:47.598Z,27.49
2023-08-19T19:44:13.998Z,27.43
2023-08-19T19:46:40.387Z,27.37
2023-08-19T19:49:06.933Z,27.30
2023-08-19T19:51:33.543Z,27.26
2023-08-19T19:53:59.924Z,27.22
2023-08-19T19:56:26.286Z,27.17
2023-08-19T19:58:52.675Z,27.12
2023-08-19T20:01:20.576Z,27.09
2023-08-19T20:03:47.194Z,27.05
2023-08-19T20:06:13.673Z,26.98
2023-08-19T20:08:40.054Z,26.91
2023-08-19T20:11:06.406Z,26.85
2023-08-19T20:13:32.924Z,26.79
2023-08-19T20:15:59.404Z,26.71
2023-08-19T20:18:25.837Z,26.65
2023-08-19T20:20:52.409Z,26.59
2023-08-19T20:23:18.790Z,26.54
2023-08-19T20:25:45.198Z,26.48
2023-08-19T20:28:11.600Z,26.42
2023-08-19T20:30:41.448Z,26.37
2023-08-19T20:33:08.217Z,26.31
2023-08-19T20:35:36.952Z,26.25
2023-08-19T20:38:04.892Z,26.21
2023-08-19T20:40:33.578Z,26.16
2023-08-19T20:43:00.084Z,26.10
2023-08-19T20:45:26.519Z,26.05
2023-08-19T20:47:55.470Z,25.98
2023-08-19T20:50:21.901Z,25.91
2023-08-19T20:52:48.312Z,25.86
2023-08-19T20:55:14.692Z,25.78
2023-08-19T20:57:41.107Z,25.75
2023-08-19T21:00:08.074Z,25.69
2023-08-19T21:02:34.723Z,25.67
2023-08-19T21:05:01.251Z,25.64
2023-08-19T21:07:30.934Z,25.63
2023-08-19T21:09:57.599Z,25.58
2023-08-19T21:12:24.005Z,25.55
2023-08-19T21:14:50.900Z,25.53
2023-08-19T21:17:17.266Z,25.49
2023-08-19T21:19:45.245Z,25.46
2023-08-19T21:22:11.613Z,25.40
2023-08-19T21:24:38.070Z,25.38
2023-08-19T21:27:04.751Z,25.34
2023-08-19T21:29:31.144Z,25.29
2023-08-19T21:31:57.557Z,25.27
2023-08-19T21:34:23.990Z,25.23
2023-08-19T21:36:50.342Z,25.19
2023-08-19T21:39:16.792Z,25.17
2023-08-19T21:41:43.142Z,25.13
2023-08-19T21:44:09.602Z,25.07
2023-08-19T21:46:35.997Z,25.01
2023-08-19T21:49:02.433Z,24.95
2023-08-19T21:51:28.872Z,24.88
2023-08-19T21:53:55.328Z,24.82
2023-08-19T21:56:21.750Z,24.76
2023-08-19T21:58:48.131Z,24.69
2023-08-19T22:01:14.676Z,24.64
2023-08-19T22:03:41.051Z,24.56
2023-08-19T22:06:07.449Z,24.50
2023-08-19T22:08:33.942Z,24.45
2023-08-19T22:11:00.369Z,24.41
2023-08-19T22:13:26.768Z,24.37
2023-08-19T22:15:53.220Z,24.32
2023-08-19T22:18:19.602Z,24.28
2023-08-19T22:20:51.452Z,24.21
2023-08-19T22:23:19.066Z,24.16
2023-08-19T22:25:45.603Z,24.09
2023-08-19T22:28:12.054Z,24.03
2023-08-19T22:30:38.752Z,23.96
2023-08-19T22:33:05.395Z,23.90
2023-08-19T22:35:31.907Z,23.85
2023-08-19T22:37:58.400Z,23.79
2023-08-19T22:40:24.855Z,23.75
2023-08-19T22:42:51.227Z,23.71
2023-08-19T22:45:17.623Z,23.66
2023-08-19T22:47:45.386Z,23.61
2023-08-19T22:50:12.179Z,23.56
2023-08-19T22:52:38.673Z,23.51
2023-08-19T22:55:05.507Z,23.49
2023-08-19T22:57:31.915Z,23.44
2023-08-19T23:00:00.476Z,23.41
2023-08-19T23:02:27.374Z,23.37
2023-08-19T23:04:54.152Z,23.34
2023-08-19T23:07:20.625Z,23.29
2023-08-19T23:09:47.006Z,23.25
2023-08-19T23:12:13.711Z,23.19
2023-08-19T23:14:40.224Z,23.17
2023-08-19T23:17:06.702Z,23.13
2023-08-19T23:19:33.520Z,23.09
2023-08-19T23:22:00.226Z,23.05
2023-08-19T23:24:27.114Z,23.01
2023-08-19T23:26:53.661Z,22.98
2023-08-19T23:29:20.064Z,22.93
2023-08-19T23:31:46.607Z,22.90
2023-08-19T23:34:13.031Z,22.86
2023-08-19T23:36:39.458Z,22.82
2023-08-19T23:39:08.488Z,22.76
2023-08-19T23:41:36.045Z,22.73
2023-08-19T23:44:03.242Z,22.69
2023-08-19T23:46:29.796Z,22.65
2023-08-19T23:48:56.749Z,22.62
2023-08-19T23:51:25.511Z,22.58
2023-08-19T23:53:54.535Z,22.58
2023-08-19T23:56:21.218Z,22.57
2023-08-19T23:58:47.873Z,22.56
